createdAt,value
2023-01-11T00:01:55.206Z,6.29
2023-01-11T00:04:23.307Z,6.22
2023-01-11T00:06:50.375Z,6.23
2023-01-11T00:09:17.712Z,6.21
2023-01-11T00:11:44.480Z,6.22
2023-01-11T00:14:10.973Z,6.22
2023-01-11T00:16:37.941Z,6.21
2023-01-11T00:19:05.395Z,6.23
2023-01-11T00:21:31.816Z,6.21
2023-01-11T00:23:58.732Z,6.28
2023-01-11T00:26:25.245Z,6.27
2023-01-11T00:28:52.959Z,6.28
2023-01-11T00:31:19.529Z,6.27
2023-01-11T00:33:46.103Z,6.32
2023-01-11T00:36:13.274Z,6.37
2023-01-11T00:38:53.710Z,6.45
2023-01-11T00:41:41.070Z,6.43
2023-01-11T00:44:29.366Z,6.49
2023-01-11T00:47:15.211Z,6.50
2023-01-11T00:49:42.839Z,6.50
2023-01-11T00:52:10.288Z,6.56
2023-01-11T00:54:41.186Z,6.59
2023-01-11T00:57:08.494Z,6.63
2023-01-11T00:59:36.333Z,6.60
2023-01-11T01:02:03.675Z,6.64
2023-01-11T01:04:30.262Z,6.61
2023-01-11T01:06:57.403Z,6.66
2023-01-11T01:09:23.851Z,6.71
2023-01-11T01:11:50.292Z,6.66
2023-01-11T01:14:25.976Z,6.57
2023-01-11T01:16:53.998Z,6.56
2023-01-11T01:19:22.449Z,6.62
2023-01-11T01:21:50.289Z,6.60
2023-01-11T01:24:17.295Z,6.65
2023-01-11T01:26:43.777Z,6.67
2023-01-11T01:29:10.342Z,6.71
2023-01-11T01:31:37.194Z,6.68
2023-01-11T01:34:03.886Z,6.65
2023-01-11T01:36:30.309Z,6.67
2023-01-11T01:38:59.733Z,6.67
2023-01-11T01:41:26.982Z,6.73
2023-01-11T01:43:57.189Z,6.74
2023-01-11T01:46:44.027Z,6.79
2023-01-11T01:49:31.340Z,6.86
2023-01-11T01:52:18.449Z,6.85
2023-01-11T01:55:10.181Z,6.94
2023-01-11T01:57:58.837Z,6.86
2023-01-11T02:00:46.114Z,6.88
2023-01-11T02:03:18.782Z,6.98
2023-01-11T02:05:46.071Z,7.07
2023-01-11T02:08:22.497Z,7.04
2023-01-11T02:10:49.929Z,6.97
2023-01-11T02:13:17.179Z,7.04
2023-01-11T02:15:44.047Z,7.14
2023-01-11T02:18:13.370Z,7.10
2023-01-11T02:20:52.828Z,7.09
2023-01-11T02:23:19.214Z,7.09
2023-01-11T02:26:11.811Z,7.07
2023-01-11T02:29:02.617Z,7.17
2023-01-11T02:31:52.043Z,7.15
2023-01-11T02:34:24.895Z,7.13
2023-01-11T02:37:11.886Z,7.11
2023-01-11T02:40:12.534Z,7.16
2023-01-11T02:43:10.112Z,7.09
2023-01-11T02:45:46.615Z,7.08
2023-01-11T02:48:26.703Z,7.07
2023-01-11T02:51:05.850Z,7.09
2023-01-11T02:53:39.552Z,7.09
2023-01-11T02:56:18.657Z,7.10
2023-01-11T02:58:47.946Z,7.08
2023-01-11T03:01:16.036Z,7.03
2023-01-11T03:03:42.992Z,7.10
2023-01-11T03:06:20.862Z,7.11
2023-01-11T03:09:23.634Z,7.10
2023-01-11T03:12:31.181Z,7.08
2023-01-11T03:15:13.082Z,7.09
2023-01-11T03:17:52.447Z,7.09
2023-01-11T03:20:28.679Z,7.09
2023-01-11T03:23:10.490Z,7.07
2023-01-11T03:25:53.592Z,7.12
2023-01-11T03:28:36.902Z,7.06
2023-01-11T03:31:28.839Z,7.12
2023-01-11T03:34:17.362Z,7.10
2023-01-11T03:36:55.208Z,7.20
2023-01-11T03:39:38.805Z,7.16
2023-01-11T03:42:09.835Z,7.25
2023-01-11T03:44:43.759Z,7.24
2023-01-11T03:47:15.193Z,7.21
2023-01-11T03:50:08.636Z,7.29
2023-01-11T03:52:39.249Z,7.27
2023-01-11T03:55:09.523Z,7.30
2023-01-11T03:57:42.540Z,7.26
2023-01-11T04:00:09.819Z,7.28
2023-01-11T04:02:41.286Z,7.28
2023-01-11T04:05:10.027Z,7.37
2023-01-11T04:07:36.918Z,7.36
2023-01-11T04:10:04.364Z,7.44
2023-01-11T04:12:31.195Z,7.40
2023-01-11T04:14:57.825Z,7.43
2023-01-11T04:17:25.065Z,7.44
2023-01-11T04:19:52.119Z,7.41
2023-01-11T04:22:21.742Z,7.43
2023-01-11T04:24:48.480Z,7.46
2023-01-11T04:27:14.975Z,7.48
2023-01-11T04:29:41.734Z,7.49
2023-01-11T04:32:08.494Z,7.52
2023-01-11T04:34:34.969Z,7.55
2023-01-11T04:37:01.721Z,7.54
2023-01-11T04:39:28.292Z,7.57
2023-01-11T04:42:13.589Z,7.55
2023-01-11T04:44:40.633Z,7.55
2023-01-11T04:47:07.473Z,7.61
2023-01-11T04:49:34.088Z,7.65
2023-01-11T04:52:00.854Z,7.65
2023-01-11T04:54:27.284Z,7.61
2023-01-11T04:56:54.279Z,7.66
2023-01-11T04:59:21.368Z,7.61
2023-01-11T05:01:48.062Z,7.65
2023-01-11T05:04:15.512Z,7.66
2023-01-11T05:06:42.336Z,7.66
2023-01-11T05:09:18.249Z,7.63
2023-01-11T05:11:45.551Z,7.69
2023-01-11T05:14:14.366Z,7.67
2023-01-11T05:16:42.300Z,7.62
2023-01-11T05:19:10.797Z,7.61
2023-01-11T05:21:40.034Z,7.61
2023-01-11T05:24:09.227Z,7.64
2023-01-11T05:26:38.600Z,7.59
2023-01-11T05:29:08.613Z,7.55
2023-01-11T05:31:37.210Z,7.57
2023-01-11T05:34:06.847Z,7.55
2023-01-11T05:36:35.128Z,7.61
2023-01-11T05:39:05.196Z,7.62
2023-01-11T05:41:33.287Z,7.56
2023-01-11T05:44:18.616Z,7.58
2023-01-11T05:46:45.522Z,7.54
2023-01-11T05:49:13.741Z,7.56
2023-01-11T05:51:41.892Z,7.54
2023-01-11T05:54:12.301Z,7.54
2023-01-11T05:56:39.127Z,7.52
2023-01-11T05:59:06.232Z,7.56
2023-01-11T06:01:33.008Z,7.53
2023-01-11T06:03:59.910Z,7.56
2023-01-11T06:06:26.623Z,7.61
2023-01-11T06:08:53.082Z,7.60
2023-01-11T06:11:19.753Z,7.59
2023-01-11T06:13:46.709Z,7.67
2023-01-11T06:16:19.024Z,7.66
2023-01-11T06:18:48.590Z,7.65
2023-01-11T06:21:16.380Z,7.67
2023-01-11T06:23:45.688Z,7.73
2023-01-11T06:26:15.385Z,7.75
2023-01-11T06:28:45.381Z,7.75
2023-01-11T06:31:12.577Z,7.74
2023-01-11T06:33:39.684Z,7.73
2023-01-11T06:36:09.060Z,7.77
2023-01-11T06:38:37.022Z,7.84
2023-01-11T06:41:07.079Z,7.84
2023-01-11T06:43:34.792Z,7.84
2023-01-11T06:46:01.370Z,7.90
2023-01-11T06:48:28.539Z,7.96
2023-01-11T06:50:57.198Z,8.00
2023-01-11T06:53:28.444Z,8.00
2023-01-11T06:55:58.002Z,8.05
2023-01-11T06:58:26.895Z,8.06
2023-01-11T07:00:56.999Z,8.10
2023-01-11T07:03:25.364Z,8.14
2023-01-11T07:05:53.637Z,8.13
2023-01-11T07:08:20.481Z,8.21
2023-01-11T07:10:47.164Z,8.25
2023-01-11T07:13:16.264Z,8.26
2023-01-11T07:15:48.722Z,8.22
2023-01-11T07:18:15.625Z,8.25
2023-01-11T07:20:42.963Z,8.33
2023-01-11T07:23:12.963Z,8.39
2023-01-11T07:25:39.651Z,8.38
2023-01-11T07:28:07.730Z,8.50
2023-01-11T07:30:51.906Z,8.53
2023-01-11T07:33:22.585Z,8.52
2023-01-11T07:35:49.916Z,8.49
2023-01-11T07:38:16.761Z,8.61
2023-01-11T07:40:43.357Z,8.55
2023-01-11T07:43:18.909Z,8.58
2023-01-11T07:45:49.854Z,8.56
2023-01-11T07:48:24.869Z,8.61
2023-01-11T07:50:52.780Z,8.73
2023-01-11T07:53:19.662Z,8.77
2023-01-11T07:55:47.432Z,8.83
2023-01-11T07:58:15.496Z,8.76
2023-01-11T08:00:42.103Z,8.79
2023-01-11T08:03:09.287Z,8.82
2023-01-11T08:05:36.158Z,8.83
2023-01-11T08:08:02.868Z,8.79
2023-01-11T08:10:29.828Z,8.83
2023-01-11T08:13:15.426Z,8.87
2023-01-11T08:15:44.977Z,8.90
2023-01-11T08:18:12.215Z,8.88
2023-01-11T08:20:40.107Z,8.86
2023-01-11T08:23:11.875Z,8.88
2023-01-11T08:25:38.504Z,8.91
2023-01-11T08:28:07.416Z,8.92
2023-01-11T08:30:35.120Z,9.00
2023-01-11T08:33:02.741Z,8.96
2023-01-11T08:35:30.405Z,8.99
2023-01-11T08:37:57.139Z,9.02
2023-01-11T08:40:25.386Z,9.03
2023-01-11T08:42:56.728Z,9.04
2023-01-11T08:45:23.959Z,9.05
2023-01-11T08:47:51.826Z,9.00
2023-01-11T08:50:20.638Z,9.01
2023-01-11T08:52:51.384Z,8.96
2023-01-11T08:55:19.422Z,8.96
2023-01-11T08:57:46.545Z,8.95
2023-01-11T09:00:13.771Z,9.00
2023-01-11T09:02:40.514Z,8.97
2023-01-11T09:05:07.424Z,8.96
2023-01-11T09:07:34.321Z,8.98
2023-01-11T09:10:01.100Z,8.99
2023-01-11T09:12:28.114Z,8.93
2023-01-11T09:14:54.569Z,8.94
2023-01-11T09:17:21.306Z,9.03
2023-01-11T09:19:47.849Z,9.05
2023-01-11T09:22:14.503Z,9.05
2023-01-11T09:24:41.379Z,9.05
2023-01-11T09:27:08.137Z,8.99
2023-01-11T09:29:37.125Z,9.09
2023-01-11T09:32:04.531Z,9.00
2023-01-11T09:34:31.398Z,9.05
2023-01-11T09:37:00.785Z,9.05
2023-01-11T09:39:28.870Z,9.05
2023-01-11T09:42:01.983Z,9.05
2023-01-11T09:44:30.111Z,9.03
2023-01-11T09:47:12.282Z,9.04
2023-01-11T09:49:40.722Z,9.02
2023-01-11T09:52:29.250Z,8.99
2023-01-11T09:55:00.489Z,9.03
2023-01-11T09:57:54.673Z,9.02
2023-01-11T10:00:50.446Z,9.02
2023-01-11T10:03:38.799Z,9.01
2023-01-11T10:06:29.142Z,8.94
2023-01-11T10:18:30.856Z,8.95
2023-01-11T10:18:31.011Z,8.96
2023-01-11T10:20:57.858Z,8.96
2023-01-11T10:23:32.728Z,8.96
2023-01-11T10:26:04.882Z,8.98
2023-01-11T10:28:46.417Z,8.98
2023-01-11T10:31:44.869Z,8.96
2023-01-11T10:34:42.452Z,8.96
2023-01-11T10:37:13.174Z,9.02
2023-01-11T10:40:07.213Z,8.99
2023-01-11T10:42:45.788Z,9.07
2023-01-11T10:45:22.203Z,9.06
2023-01-11T10:48:01.532Z,9.07
2023-01-11T10:50:36.541Z,9.08
2023-01-11T10:53:25.739Z,9.08
2023-01-11T10:56:21.647Z,9.08
2023-01-11T10:59:15.649Z,9.09
2023-01-11T11:02:29.652Z,9.15
2023-01-11T11:05:19.025Z,9.19
2023-01-11T11:08:14.814Z,9.21
2023-01-11T11:10:54.186Z,9.21
2023-01-11T11:13:46.657Z,9.24
2023-01-11T11:16:22.310Z,9.27
2023-01-11T11:18:51.029Z,9.28
2023-01-11T11:21:24.003Z,9.29
2023-01-11T11:24:02.034Z,9.32
2023-01-11T11:26:39.794Z,9.33
2023-01-11T11:29:08.961Z,9.36
2023-01-11T11:31:44.217Z,9.38
2023-01-11T11:34:17.688Z,9.42
2023-01-11T11:36:47.480Z,9.41
2023-01-11T11:39:31.499Z,9.44
2023-01-11T11:42:14.913Z,9.51
2023-01-11T11:44:41.899Z,9.49
2023-01-11T11:47:16.484Z,9.48
2023-01-11T11:49:43.610Z,9.53
2023-01-11T11:52:15.077Z,9.51
2023-01-11T11:54:58.010Z,9.54
2023-01-11T11:57:36.925Z,9.51
2023-01-11T12:00:25.264Z,9.47
2023-01-11T12:02:59.005Z,9.46
2023-01-11T12:05:26.405Z,9.46
2023-01-11T12:07:55.780Z,9.50
2023-01-11T12:10:25.512Z,9.51
2023-01-11T12:12:53.949Z,9.53
2023-01-11T12:15:27.054Z,9.54
2023-01-11T12:17:55.107Z,9.52
2023-01-11T12:20:21.574Z,9.52
2023-01-11T12:22:50.327Z,9.50
2023-01-11T12:25:17.026Z,9.54
2023-01-11T12:28:09.063Z,9.54
2023-01-11T12:30:42.338Z,9.53
2023-01-11T12:33:31.159Z,9.56
2023-01-11T12:36:12.732Z,9.53
2023-01-11T12:38:41.975Z,9.55
2023-01-11T12:41:43.550Z,9.57
2023-01-11T12:44:18.620Z,9.61
2023-01-11T12:47:20.608Z,9.56
2023-01-11T12:49:56.429Z,9.59
2023-01-11T12:52:50.697Z,9.57
2023-01-11T12:55:47.534Z,9.57
2023-01-11T12:58:22.054Z,9.60
2023-01-11T13:01:16.461Z,9.58
2023-01-11T13:04:21.112Z,9.53
2023-01-11T13:07:03.476Z,9.55
2023-01-11T13:09:57.373Z,9.56
2023-01-11T13:12:36.173Z,9.55
2023-01-11T13:15:16.792Z,9.54
2023-01-11T13:18:18.178Z,9.54
2023-01-11T13:21:01.781Z,9.58
2023-01-11T13:23:39.082Z,9.57
2023-01-11T13:26:28.656Z,9.57
2023-01-11T13:29:02.842Z,9.56
2023-01-11T13:31:33.945Z,9.55
2023-01-11T13:34:07.231Z,9.56
2023-01-11T13:36:43.856Z,9.54
2023-01-11T13:39:20.817Z,9.55
2023-01-11T13:41:54.993Z,9.52
2023-01-11T13:44:27.673Z,9.56
2023-01-11T13:47:17.171Z,9.54
2023-01-11T13:49:49.751Z,9.57
2023-01-11T13:52:20.273Z,9.63
2023-01-11T13:55:09.041Z,9.63
2023-01-11T13:57:57.825Z,9.71
2023-01-11T14:00:32.706Z,9.69
2023-01-11T14:03:12.096Z,9.76
2023-01-11T14:05:58.843Z,9.74
2023-01-11T14:08:55.413Z,9.77
2023-01-11T14:11:37.031Z,9.74
2023-01-11T14:14:33.235Z,9.70
2023-01-11T14:17:27.363Z,9.72
2023-01-11T14:20:05.544Z,9.76
2023-01-11T14:22:47.175Z,9.73
2023-01-11T14:25:26.233Z,9.73
2023-01-11T14:28:02.994Z,9.79
2023-01-11T14:31:01.569Z,9.78
2023-01-11T14:33:58.787Z,9.73
2023-01-11T14:36:37.376Z,9.70
2023-01-11T14:39:33.671Z,9.71
2023-01-11T14:42:36.095Z,9.61
2023-01-11T14:45:38.313Z,9.60
2023-01-11T14:48:36.128Z,9.62
2023-01-11T14:51:33.302Z,9.58
2023-01-11T14:54:10.369Z,9.65
2023-01-11T14:56:43.157Z,9.59
2023-01-11T14:59:32.207Z,9.54
2023-01-11T15:02:05.552Z,9.54
2023-01-11T15:04:37.332Z,9.54
2023-01-11T15:07:29.249Z,9.50
2023-01-11T15:09:57.831Z,9.57
2023-01-11T15:12:33.180Z,9.56
2023-01-11T15:15:07.592Z,9.54
2023-01-11T15:17:53.302Z,9.58
2023-01-11T15:20:21.715Z,9.53
2023-01-11T15:22:56.885Z,9.53
2023-01-11T15:25:29.537Z,9.54
2023-01-11T15:27:57.014Z,9.49
2023-01-11T15:30:29.769Z,9.45
2023-01-11T15:33:18.753Z,9.46
2023-01-11T15:36:07.787Z,9.46
2023-01-11T15:39:02.584Z,9.39
2023-01-11T15:42:06.611Z,9.40
2023-01-11T15:45:18.887Z,9.34
2023-01-11T15:48:07.241Z,9.31
2023-01-11T15:50:52.901Z,9.33
2023-01-11T15:53:43.328Z,9.31
2023-01-11T15:56:28.257Z,9.31
2023-01-11T15:59:26.515Z,9.38
2023-01-11T16:02:16.095Z,9.31
2023-01-11T16:04:49.477Z,9.37
2023-01-11T16:07:41.940Z,9.30
2023-01-11T16:10:23.736Z,9.28
2023-01-11T16:13:08.061Z,9.27
2023-01-11T16:15:59.748Z,9.20
2023-01-11T16:18:30.247Z,9.19
2023-01-11T16:20:59.570Z,9.13
2023-01-11T16:23:26.049Z,9.11
2023-01-11T16:25:57.562Z,9.04
2023-01-11T16:28:25.101Z,9.01
2023-01-11T16:30:57.321Z,8.99
2023-01-11T16:33:27.138Z,8.97
2023-01-11T16:36:10.383Z,8.88
2023-01-11T16:38:52.613Z,8.92
2023-01-11T16:41:19.953Z,8.86
2023-01-11T16:43:58.739Z,8.82
2023-01-11T16:47:17.973Z,8.81
2023-01-11T16:49:52.511Z,8.78
2023-01-11T16:52:28.260Z,8.72
2023-01-11T16:54:56.979Z,8.69
2023-01-11T16:57:29.554Z,8.75
2023-01-11T17:00:01.722Z,8.66
2023-01-11T17:02:40.313Z,8.69
2023-01-11T17:05:22.378Z,8.66
2023-01-11T17:07:48.820Z,8.59
2023-01-11T17:10:29.776Z,8.58
2023-01-11T17:13:48.322Z,8.56
2023-01-11T17:16:16.235Z,8.52
2023-01-11T17:18:43.913Z,8.57
2023-01-11T17:21:20.177Z,8.52
2023-01-11T17:23:48.691Z,8.56
2023-01-11T17:26:23.491Z,8.49
2023-01-11T17:28:52.817Z,8.43
2023-01-11T17:31:26.640Z,8.43
2023-01-11T17:34:03.246Z,8.40
2023-01-11T17:36:31.203Z,8.38
2023-01-11T17:38:59.108Z,8.34
2023-01-11T17:41:46.573Z,8.36
2023-01-11T17:44:39.219Z,8.30
2023-01-11T17:47:08.571Z,8.28
2023-01-11T17:49:37.987Z,8.17
2023-01-11T17:52:10.149Z,8.16
2023-01-11T17:54:36.761Z,8.12
2023-01-11T17:57:03.699Z,8.03
2023-01-11T17:59:31.320Z,8.06
2023-01-11T18:02:03.843Z,7.98
2023-01-11T18:04:32.215Z,7.96
2023-01-11T18:07:15.207Z,7.84
2023-01-11T18:09:50.603Z,7.86
2023-01-11T18:12:23.924Z,7.86
2023-01-11T18:14:58.948Z,7.83
2023-01-11T18:17:39.787Z,7.82
2023-01-11T18:20:29.480Z,7.86
2023-01-11T18:23:20.595Z,7.81
2023-01-11T18:25:47.270Z,7.88
2023-01-11T18:28:26.426Z,7.86
2023-01-11T18:30:57.662Z,7.85
2023-01-11T18:33:32.515Z,7.82
2023-01-11T18:36:02.971Z,7.85
2023-01-11T18:38:32.604Z,7.87
2023-01-11T18:41:23.397Z,7.86
2023-01-11T18:43:49.997Z,7.86
2023-01-11T18:46:17.869Z,7.83
2023-01-11T18:48:44.728Z,7.85
2023-01-11T18:51:27.230Z,7.81
2023-01-11T18:53:53.741Z,7.76
2023-01-11T18:56:20.319Z,7.74
2023-01-11T18:58:46.724Z,7.74
2023-01-11T19:01:14.064Z,7.69
2023-01-11T19:03:41.461Z,7.65
2023-01-11T19:06:19.230Z,7.68
2023-01-11T19:08:45.668Z,7.64
2023-01-11T19:11:13.856Z,7.57
2023-01-11T19:13:40.911Z,7.54
2023-01-11T19:16:08.097Z,7.54
2023-01-11T19:18:35.382Z,7.54
2023-01-11T19:21:06.545Z,7.53
2023-01-11T19:23:34.392Z,7.54
2023-01-11T19:26:03.760Z,7.49
2023-01-11T19:28:30.550Z,7.48
2023-01-11T19:30:58.062Z,7.48
2023-01-11T19:33:25.090Z,7.48
2023-01-11T19:35:51.937Z,7.47
2023-01-11T19:38:19.576Z,7.45
2023-01-11T19:40:48.937Z,7.51
2023-01-11T19:43:16.080Z,7.55
2023-01-11T19:45:42.479Z,7.50
2023-01-11T19:48:09.081Z,7.52
2023-01-11T19:50:35.598Z,7.54
2023-01-11T19:53:02.018Z,7.62
2023-01-11T19:55:28.647Z,7.69
2023-01-11T19:57:55.092Z,7.70
2023-01-11T20:00:21.632Z,7.70
2023-01-11T20:02:48.094Z,7.73
2023-01-11T20:05:14.670Z,7.74
2023-01-11T20:07:41.077Z,7.77
2023-01-11T20:10:07.866Z,7.72
2023-01-11T20:12:34.367Z,7.73
2023-01-11T20:15:01.456Z,7.71
2023-01-11T20:17:28.710Z,7.71
2023-01-11T20:19:55.421Z,7.68
2023-01-11T20:22:23.223Z,7.62
2023-01-11T20:24:50.536Z,7.58
2023-01-11T20:27:17.509Z,7.56
2023-01-11T20:29:43.946Z,7.51
2023-01-11T20:32:34.873Z,7.48
2023-01-11T20:34:57.530Z,7.47
2023-01-11T20:38:15.043Z,7.49
2023-01-11T20:40:41.658Z,7.42
2023-01-11T20:43:10.539Z,7.40
2023-01-11T20:45:39.439Z,7.39
2023-01-11T20:48:13.659Z,7.40
2023-01-11T20:50:40.550Z,7.39
2023-01-11T20:53:07.361Z,7.41
2023-01-11T20:55:33.999Z,7.36
2023-01-11T20:58:01.107Z,7.33
2023-01-11T21:00:35.263Z,7.35
2023-01-11T21:03:08.655Z,7.30
2023-01-11T21:05:39.797Z,7.29
2023-01-11T21:08:06.312Z,7.27
2023-01-11T21:10:33.390Z,7.19
2023-01-11T21:13:03.751Z,7.10
2023-01-11T21:15:30.309Z,7.08
2023-01-11T21:17:56.913Z,6.97
2023-01-11T21:20:23.471Z,7.02
2023-01-11T21:22:49.987Z,6.99
2023-01-11T21:25:17.440Z,6.94
2023-01-11T21:27:43.984Z,6.92
2023-01-11T21:30:11.175Z,6.91
2023-01-11T21:32:37.711Z,6.91
2023-01-11T21:35:05.451Z,6.91
2023-01-11T21:37:32.382Z,6.84
2023-01-11T21:39:58.790Z,6.80
2023-01-11T21:42:25.286Z,6.81
2023-01-11T21:44:51.996Z,6.77
2023-01-11T21:47:19.598Z,6.81
2023-01-11T21:49:46.497Z,6.81
2023-01-11T21:52:13.671Z,6.75
2023-01-11T21:54:40.441Z,6.80
2023-01-11T21:57:06.943Z,6.81
2023-01-11T21:59:35.750Z,6.78
2023-01-11T22:02:02.338Z,6.80
2023-01-11T22:04:28.812Z,6.78
2023-01-11T22:06:56.202Z,6.76
2023-01-11T22:09:26.625Z,6.73
2023-01-11T22:11:53.575Z,6.71
2023-01-11T22:14:20.724Z,6.72
2023-01-11T22:16:47.577Z,6.71
2023-01-11T22:19:14.884Z,6.64
2023-01-11T22:21:41.716Z,6.67
2023-01-11T22:24:10.958Z,6.66
2023-01-11T22:26:39.200Z,6.65
2023-01-11T22:29:16.431Z,6.65
2023-01-11T22:31:54.474Z,6.67
2023-01-11T22:34:22.142Z,6.67
2023-01-11T22:36:48.940Z,6.67
2023-01-11T22:39:16.978Z,6.70
2023-01-11T22:41:45.485Z,6.70
2023-01-11T22:44:12.670Z,6.70
2023-01-11T22:46:40.717Z,6.68
2023-01-11T22:49:08.059Z,6.67
2023-01-11T22:51:36.083Z,6.67
2023-01-11T22:54:03.554Z,6.63
2023-01-11T22:56:30.675Z,6.65
2023-01-11T22:58:58.219Z,6.65
2023-01-11T23:01:27.621Z,6.65
2023-01-11T23:03:55.274Z,6.61
2023-01-11T23:06:27.580Z,6.63
2023-01-11T23:08:54.679Z,6.68
2023-01-11T23:11:45.851Z,6.62
2023-01-11T23:14:15.685Z,6.64
2023-01-11T23:16:42.913Z,6.60
2023-01-11T23:19:10.884Z,6.60
2023-01-11T23:21:42.168Z,6.62
2023-01-11T23:24:10.549Z,6.58
2023-01-11T23:26:37.210Z,6.58
2023-01-11T23:29:04.888Z,6.60
2023-01-11T23:31:31.883Z,6.61
2023-01-11T23:34:00.520Z,6.62
2023-01-11T23:36:30.645Z,6.64
2023-01-11T23:38:57.633Z,6.65
2023-01-11T23:41:43.719Z,6.69
2023-01-11T23:44:13.102Z,6.64
2023-01-11T23:47:00.739Z,6.67
2023-01-11T23:49:28.665Z,6.66
2023-01-11T23:51:55.780Z,6.64
2023-01-11T23:54:25.732Z,6.67
2023-01-11T23:56:52.131Z,6.67
2023-01-11T23:59:19.116Z,6.66
